Time;durP1;ratioP1;P1;durP2;ratioP2;P2;SDS_P1;SDS_P2;PMS_P1;PMS_P2;Temp;Humidity;BMP_temperature;BMP_pressure;BME280_temperature;BME280_humidity;BME280_pressure;Samples;Min_cycle;Max_cycle;Signal;HPM_P1;HPM_P2
2022/07/09 00:02:17;;;;;;;0.10;0.10;;;;;;;22.02;52.57;102448.47;5142150;27;20195;-37
2022/07/09 00:04:43;;;;;;;0.10;0.10;;;;;;;22.02;52.51;102446.56;5140139;27;20050;-37
2022/07/09 00:07:09;;;;;;;0.10;0.10;;;;;;;22.01;52.59;102441.25;5140223;27;20091;-38
2022/07/09 00:09:35;;;;;;;0.10;0.10;;;;;;;22.02;52.56;102449.31;5138651;27;20092;-37
2022/07/09 00:12:00;;;;;;;0.10;0.10;;;;;;;22.02;52.63;102435.47;5139080;27;20045;-36
2022/07/09 00:14:26;;;;;;;0.10;0.10;;;;;;;22.01;52.50;102444.84;5122309;27;20400;-37
2022/07/09 00:16:51;;;;;;;0.10;0.10;;;;;;;22.01;52.57;102438.47;5141764;27;20039;-37
2022/07/09 00:19:17;;;;;;;0.10;0.10;;;;;;;22.03;52.52;102431.56;5140326;27;20130;-38
2022/07/09 00:21:43;;;;;;;0.10;0.10;;;;;;;22.00;52.64;102437.63;5140713;27;20043;-38
2022/07/09 00:24:09;;;;;;;0.10;0.10;;;;;;;22.03;52.52;102427.97;5147003;27;20047;-38
2022/07/09 00:26:34;;;;;;;0.10;0.10;;;;;;;22.01;52.70;102427.38;5143782;27;20569;-37
2022/07/09 00:29:00;;;;;;;0.10;0.10;;;;;;;22.02;52.59;102424.38;5143006;27;20493;-38
2022/07/09 00:31:25;;;;;;;0.10;0.10;;;;;;;22.02;52.59;102426.28;5124311;27;20043;-38
2022/07/09 00:33:51;;;;;;;0.10;0.10;;;;;;;22.01;52.55;102422.66;5143760;27;20088;-37
2022/07/09 00:36:17;;;;;;;0.10;0.10;;;;;;;22.03;52.59;102423.25;5143460;27;20054;-36
2022/07/09 00:38:42;;;;;;;0.10;0.10;;;;;;;22.02;52.50;102423.50;5142515;27;20091;-38
2022/07/09 00:41:08;;;;;;;0.10;0.10;;;;;;;22.01;52.58;102414.34;5142915;27;20103;-37
2022/07/09 00:43:34;;;;;;;0.10;0.10;;;;;;;22.01;52.41;102422.66;5144577;27;20043;-37
2022/07/09 00:45:59;;;;;;;0.10;0.10;;;;;;;22.02;52.40;102415.19;5141133;27;20051;-35
2022/07/09 00:48:25;;;;;;;0.10;0.10;;;;;;;22.02;52.45;102423.50;5141225;27;20045;-37
2022/07/09 00:50:51;;;;;;;0.10;0.10;;;;;;;22.01;52.47;102414.34;5146223;27;20084;-37
2022/07/09 00:53:20;;;;;;;0.10;0.10;;;;;;;22.01;52.50;102408.78;5124421;27;20078;-37
2022/07/09 00:55:47;;;;;;;0.10;0.10;;;;;;;22.02;52.53;102406.84;5143142;27;20054;-37
2022/07/09 00:58:16;;;;;;;0.10;0.10;;;;;;;22.01;52.64;102410.72;5141305;27;20074;-37
2022/07/09 01:00:42;;;;;;;0.10;0.10;;;;;;;22.00;52.63;102415.44;5124374;27;20135;-37
2022/07/09 01:03:07;;;;;;;0.10;0.10;;;;;;;22.02;52.67;102409.63;5144287;27;20133;-38
2022/07/09 01:05:36;;;;;;;0.10;0.10;;;;;;;22.03;52.53;102405.78;5141435;27;20047;-37
2022/07/09 01:08:04;;;;;;;0.10;0.10;;;;;;;22.00;52.69;102407.13;5145212;27;20126;-37
2022/07/09 01:10:30;;;;;;;0.10;0.10;;;;;;;22.01;52.61;102407.97;5123231;27;20529;-37
2022/07/09 01:12:56;;;;;;;0.10;0.10;;;;;;;22.02;52.61;102410.50;5124251;27;20480;-39
2022/07/09 01:15:21;;;;;;;0.10;0.10;;;;;;;22.01;52.62;102403.25;5144672;27;20470;-39
2022/07/09 01:17:47;;;;;;;0.10;0.10;;;;;;;22.01;52.66;102408.78;5143988;27;20042;-37
2022/07/09 01:20:13;;;;;;;0.10;0.10;;;;;;;22.01;52.62;102407.97;5141357;27;20043;-37
2022/07/09 01:22:41;;;;;;;0.10;0.10;;;;;;;22.01;52.60;102405.19;5142777;27;20042;-36
2022/07/09 01:25:09;;;;;;;0.10;0.10;;;;;;;22.01;52.59;102406.03;5140946;27;20082;-37
2022/07/09 01:27:36;;;;;;;0.10;0.10;;;;;;;22.02;52.67;102402.16;5141317;27;20461;-39
2022/07/09 01:30:03;;;;;;;0.10;0.10;;;;;;;22.00;52.53;102403.53;5126922;27;20074;-39
2022/07/09 01:32:29;;;;;;;0.10;0.10;;;;;;;22.01;52.57;102400.47;5124782;27;20493;-36
2022/07/09 01:34:55;;;;;;;0.10;0.10;;;;;;;22.01;52.55;102397.69;5138724;27;20043;-38
2022/07/09 01:37:20;;;;;;;0.10;0.10;;;;;;;22.02;52.56;102393.84;5142201;27;20046;-38
2022/07/09 01:39:53;;;;;;;0.10;0.10;;;;;;;22.02;52.62;102401.31;5139818;27;20061;-38
2022/07/09 01:42:19;;;;;;;0.10;0.10;;;;;;;22.00;52.64;102393.25;5143138;27;20085;-37
2022/07/09 01:44:46;;;;;;;0.10;0.10;;;;;;;22.00;52.60;102392.44;5124148;27;20454;-38
2022/07/09 01:47:11;;;;;;;0.10;0.10;;;;;;;22.02;52.61;102399.41;5122873;27;20107;-38
2022/07/09 01:49:38;;;;;;;0.10;0.10;;;;;;;22.01;52.63;102397.69;5142857;27;20047;-38
2022/07/09 01:52:04;;;;;;;0.10;0.10;;;;;;;22.02;52.44;102387.44;5121175;27;20077;-39
2022/07/09 01:54:30;;;;;;;0.10;0.10;;;;;;;22.03;52.61;102386.34;5139646;27;20544;-37
2022/07/09 01:56:55;;;;;;;0.10;0.10;;;;;;;22.03;52.67;102384.41;5145606;27;20039;-34
2022/07/09 01:59:21;;;;;;;0.10;0.10;;;;;;;22.00;52.60;102379.38;5139257;27;20404;-37
2022/07/09 02:01:47;;;;;;;0.10;0.10;;;;;;;22.00;52.63;102387.72;5143405;27;20060;-37
2022/07/09 02:04:13;;;;;;;0.10;0.10;;;;;;;22.00;52.55;102382.16;5141855;27;20039;-36
2022/07/09 02:06:39;;;;;;;0.10;0.10;;;;;;;22.01;52.66;102377.44;5142903;27;20388;-37
2022/07/09 02:09:04;;;;;;;0.10;0.10;;;;;;;22.01;52.52;102377.44;5134888;27;20039;-37
2022/07/09 02:11:30;;;;;;;0.10;0.10;;;;;;;21.99;52.64;102369.41;5146336;27;20043;-37
2022/07/09 02:13:55;;;;;;;0.10;0.10;;;;;;;22.01;52.46;102377.44;5143176;27;20049;-38
2022/07/09 02:16:21;;;;;;;0.10;0.10;;;;;;;22.00;52.76;102370.22;5141433;27;20481;-37
2022/07/09 02:18:47;;;;;;;0.10;0.10;;;;;;;22.00;52.63;102368.28;5141331;27;20046;-37
2022/07/09 02:21:13;;;;;;;0.10;0.10;;;;;;;22.01;52.60;102369.13;5136604;27;20043;-37
2022/07/09 02:23:39;;;;;;;0.10;0.10;;;;;;;22.00;52.67;102367.47;5148681;27;20429;-37
2022/07/09 02:26:04;;;;;;;0.10;0.10;;;;;;;22.01;52.62;102364.41;5145299;27;20501;-38
2022/07/09 02:28:30;;;;;;;0.10;0.10;;;;;;;22.00;52.79;102367.47;5142410;27;20091;-37
2022/07/09 02:30:57;;;;;;;0.10;0.10;;;;;;;22.01;52.63;102369.97;5137784;27;20039;-37
2022/07/09 02:33:23;;;;;;;0.10;0.10;;;;;;;22.01;52.58;102358.03;5140343;27;20090;-37
2022/07/09 02:35:56;;;;;;;0.10;0.10;;;;;;;22.00;52.54;102365.50;5142177;27;20065;-38
2022/07/09 02:38:22;;;;;;;0.10;0.10;;;;;;;21.99;52.65;102363.84;5121040;27;20129;-38
2022/07/09 02:40:48;;;;;;;0.10;0.10;;;;;;;22.00;52.62;102370.22;5138793;27;20046;-37
2022/07/09 02:43:13;;;;;;;0.10;0.10;;;;;;;22.00;52.62;102364.69;5137359;27;20389;-37
2022/07/09 02:45:39;;;;;;;0.10;0.10;;;;;;;21.99;52.68;102358.31;5123399;27;20051;-38
2022/07/09 02:48:05;;;;;;;0.10;0.10;;;;;;;21.99;52.61;102363.03;5141488;27;20065;-37
2022/07/09 02:50:31;;;;;;;0.10;0.10;;;;;;;22.02;52.83;102363.34;5140075;27;20088;-37
2022/07/09 02:52:56;;;;;;;0.10;0.10;;;;;;;22.00;52.55;102364.69;5141314;27;20411;-37
2022/07/09 02:55:22;;;;;;;0.10;0.10;;;;;;;22.01;52.72;102358.03;5145014;27;20103;-37
2022/07/09 02:57:47;;;;;;;0.10;0.10;;;;;;;22.01;52.59;102366.34;5141546;27;20043;-37
2022/07/09 03:00:13;;;;;;;0.10;0.10;;;;;;;22.00;52.72;102357.19;5139699;27;20043;-38
2022/07/09 03:02:39;;;;;;;0.10;0.10;;;;;;;22.01;52.54;102355.25;5140702;27;20047;-37
2022/07/09 03:05:05;;;;;;;0.10;0.10;;;;;;;22.00;52.66;102351.66;5140597;27;20089;-37
2022/07/09 03:07:31;;;;;;;0.10;0.10;;;;;;;22.00;52.52;102359.13;5138298;27;20055;-36
2022/07/09 03:09:56;;;;;;;0.10;0.10;;;;;;;21.99;52.67;102366.63;5137110;27;20075;-37
2022/07/09 03:12:22;;;;;;;0.10;0.10;;;;;;;22.00;52.60;102359.97;5142981;27;20046;-37
2022/07/09 03:14:47;;;;;;;0.10;0.10;;;;;;;22.00;52.54;102359.97;5139607;27;20466;-39
2022/07/09 03:17:13;;;;;;;0.10;0.10;;;;;;;22.00;52.43;102357.19;5142299;27;20386;-37
2022/07/09 03:19:39;;;;;;;0.10;0.10;;;;;;;22.01;52.63;102356.09;5142315;27;20050;-37
2022/07/09 03:22:05;;;;;;;0.10;0.10;;;;;;;22.01;52.54;102358.03;5142139;27;20039;-39
2022/07/09 03:24:31;;;;;;;0.10;0.10;;;;;;;21.99;52.55;102352.75;5121058;27;20095;-37
2022/07/09 03:26:57;;;;;;;0.10;0.10;;;;;;;22.00;52.56;102350.81;5144351;27;20471;-37
2022/07/09 03:29:22;;;;;;;0.10;0.10;;;;;;;22.00;52.56;102348.88;5142076;27;20074;-38
2022/07/09 03:31:48;;;;;;;0.10;0.10;;;;;;;21.99;52.76;102346.38;5141871;27;20039;-38
2022/07/09 03:34:14;;;;;;;0.10;0.10;;;;;;;22.00;52.59;102348.88;5139399;27;20043;-37
2022/07/09 03:36:41;;;;;;;0.10;0.10;;;;;;;22.00;52.51;102348.88;5144699;27;20075;-37
2022/07/09 03:39:06;;;;;;;0.10;0.10;;;;;;;22.00;52.63;102348.03;5139071;27;20075;-37
2022/07/09 03:41:32;;;;;;;0.10;0.10;;;;;;;21.99;52.61;102352.75;5144210;27;20141;-37
2022/07/09 03:43:58;;;;;;;0.10;0.10;;;;;;;22.01;52.71;102346.94;5125267;27;20046;-37
2022/07/09 03:46:24;;;;;;;0.10;0.10;;;;;;;22.00;52.60;102345.25;5109832;27;20176;-35
2022/07/09 03:48:50;;;;;;;0.10;0.10;;;;;;;21.99;52.90;102343.59;5120452;27;20072;-38
2022/07/09 03:51:15;;;;;;;0.10;0.10;;;;;;;22.01;52.57;102350.53;5140815;27;20043;-37
2022/07/09 03:53:41;;;;;;;0.10;0.10;;;;;;;22.00;52.59;102346.09;5142154;27;20396;-37
2022/07/09 03:56:07;;;;;;;0.10;0.10;;;;;;;22.00;52.69;102348.03;5141238;27;20079;-39
2022/07/09 03:58:33;;;;;;;0.10;0.10;;;;;;;22.01;52.62;102352.47;5145666;27;20043;-36
2022/07/09 04:00:59;;;;;;;0.10;0.10;;;;;;;22.00;52.66;102343.31;5141364;27;20047;-39
2022/07/09 04:03:25;;;;;;;0.10;0.10;;;;;;;21.99;52.67;102349.16;5143791;27;20034;-38
2022/07/09 04:05:50;;;;;;;0.10;0.10;;;;;;;22.01;52.62;102347.75;5144805;27;21054;-38
2022/07/09 04:08:16;;;;;;;0.10;0.10;;;;;;;22.00;52.89;102356.38;5145124;27;20047;-37
2022/07/09 04:10:42;;;;;;;0.10;0.10;;;;;;;22.01;52.63;102345.00;5140524;27;20049;-39
2022/07/09 04:13:07;;;;;;;0.10;0.10;;;;;;;21.99;52.64;102349.97;5143622;27;20055;-36
2022/07/09 04:15:39;;;;;;;0.10;0.10;;;;;;;21.99;52.55;102344.44;5147716;27;20737;-38
2022/07/09 04:18:05;;;;;;;0.10;0.10;;;;;;;22.00;52.43;102346.09;5138969;27;20088;-36
2022/07/09 04:20:31;;;;;;;0.10;0.10;;;;;;;22.01;52.57;102350.53;5144937;27;20482;-36
2022/07/09 04:22:56;;;;;;;0.10;0.10;;;;;;;22.00;52.57;102348.03;5142009;27;20073;-38
2022/07/09 04:25:22;;;;;;;0.10;0.10;;;;;;;21.99;52.54;102354.69;5141638;27;20043;-39
2022/07/09 04:27:48;;;;;;;0.10;0.10;;;;;;;21.99;52.57;102357.47;5148674;27;20086;-37
2022/07/09 04:30:14;;;;;;;0.10;0.10;;;;;;;22.01;52.54;102349.69;5151156;27;20038;-38
2022/07/09 04:32:40;;;;;;;0.10;0.10;;;;;;;21.99;52.67;102347.22;5144563;27;20122;-36
2022/07/09 04:35:05;;;;;;;0.10;0.10;;;;;;;21.99;52.64;102347.22;5140878;27;20047;-38
2022/07/09 04:37:31;;;;;;;0.10;0.10;;;;;;;22.00;52.55;102346.09;5138586;27;20047;-37
2022/07/09 04:39:57;;;;;;;0.10;0.10;;;;;;;22.01;52.57;102355.25;5144408;27;20273;-37
2022/07/09 04:42:22;;;;;;;0.10;0.10;;;;;;;21.99;52.57;102349.97;5145928;27;20039;-38
2022/07/09 04:44:48;;;;;;;0.10;0.10;;;;;;;22.00;52.70;102350.81;5141221;27;20039;-37
2022/07/09 04:47:14;;;;;;;0.10;0.10;;;;;;;22.00;52.85;102356.38;5144525;27;20491;-37
2022/07/09 04:49:39;;;;;;;0.10;0.10;;;;;;;21.98;52.67;102348.31;5139343;27;20481;-39
2022/07/09 04:52:05;;;;;;;0.10;0.10;;;;;;;22.00;52.71;102357.19;5144515;27;20389;-38
2022/07/09 04:54:31;;;;;;;0.10;0.10;;;;;;;21.99;52.63;102358.31;5123992;27;20528;-38
2022/07/09 04:56:57;;;;;;;0.10;0.10;;;;;;;21.99;52.56;102358.31;5144826;27;20426;-35
2022/07/09 04:59:22;;;;;;;0.10;0.10;;;;;;;22.00;52.60;102361.91;5142332;27;20050;-38
2022/07/09 05:01:49;;;;;;;0.10;0.10;;;;;;;21.99;52.70;102363.84;5144179;27;20042;-37
2022/07/09 05:04:15;;;;;;;0.10;0.10;;;;;;;21.99;52.55;102366.63;5141902;27;20130;-38
2022/07/09 05:06:41;;;;;;;0.10;0.10;;;;;;;22.00;52.58;102365.50;5141732;27;20397;-37
2022/07/09 05:09:07;;;;;;;0.10;0.10;;;;;;;21.99;52.67;102361.06;5141172;27;20380;-39
2022/07/09 05:11:33;;;;;;;0.10;0.10;;;;;;;22.00;52.67;102359.97;5145696;27;20045;-40
2022/07/09 05:13:59;;;;;;;0.10;0.10;;;;;;;22.01;52.60;102369.13;5139223;27;20439;-37
2022/07/09 05:16:25;;;;;;;0.10;0.10;;;;;;;21.99;52.83;102368.56;5120659;27;20098;-39
2022/07/09 05:18:50;;;;;;;0.10;0.10;;;;;;;21.98;52.69;102370.50;5125044;27;20041;-39
2022/07/09 05:21:16;;;;;;;0.10;0.10;;;;;;;22.00;52.62;102364.69;5141007;27;20047;-37
2022/07/09 05:23:42;;;;;;;0.10;0.10;;;;;;;22.00;52.63;102368.28;5129218;27;20177;-37
2022/07/09 05:26:07;;;;;;;0.10;0.10;;;;;;;22.00;52.65;102373.00;5143227;27;20042;-37
2022/07/09 05:28:33;;;;;;;0.10;0.10;;;;;;;22.00;52.61;102373.84;5141451;27;20042;-37
2022/07/09 05:30:59;;;;;;;0.10;0.10;;;;;;;21.99;52.59;102374.94;5143244;27;20293;-38
2022/07/09 05:33:45;;;;;;;0.10;0.10;;;;;;;21.99;52.68;102369.41;5149317;27;20385;-38
2022/07/09 05:36:15;;;;;;;0.10;0.10;;;;;;;21.98;52.78;102366.91;5145074;27;20392;-36
2022/07/09 05:38:41;;;;;;;0.10;0.10;;;;;;;22.00;52.67;102367.47;5141371;27;20047;-39
2022/07/09 05:41:07;;;;;;;0.10;0.10;;;;;;;21.99;52.62;102363.84;5144506;27;20042;-37
2022/07/09 05:43:33;;;;;;;0.10;0.10;;;;;;;21.99;52.62;102358.31;5139234;27;20051;-37
2022/07/09 05:45:59;;;;;;;0.10;0.10;;;;;;;22.00;52.61;102361.91;5140171;27;20131;-37
2022/07/09 05:48:24;;;;;;;0.10;0.10;;;;;;;22.00;52.57;102367.47;5145297;27;20047;-36
2022/07/09 05:50:50;;;;;;;0.10;0.10;;;;;;;21.97;52.75;102366.03;5140127;27;20087;-36
2022/07/09 05:53:16;;;;;;;0.10;0.10;;;;;;;22.00;52.61;102368.28;5140558;27;20049;-40
2022/07/09 05:55:41;;;;;;;0.10;0.10;;;;;;;21.98;52.62;102370.50;5144306;27;20050;-36
2022/07/09 05:58:07;;;;;;;0.10;0.10;;;;;;;21.99;52.68;102374.13;5144507;27;20039;-37
2022/07/09 06:00:33;;;;;;;0.10;0.10;;;;;;;21.97;52.58;102366.03;5139229;27;20455;-37
2022/07/09 06:02:58;;;;;;;0.10;0.10;;;;;;;21.97;52.70;102368.81;5121326;27;20045;-38
2022/07/09 06:05:24;;;;;;;0.10;0.10;;;;;;;21.98;52.65;102362.19;5143931;27;20057;-36
2022/07/09 06:07:49;;;;;;;0.10;0.10;;;;;;;21.97;52.71;102362.44;5145478;27;20046;-37
2022/07/09 06:10:17;;;;;;;0.10;0.10;;;;;;;21.99;52.45;102355.53;5142775;27;20043;-38
2022/07/09 06:12:43;;;;;;;0.10;0.10;;;;;;;21.98;52.71;102364.97;5144688;27;20459;-36
2022/07/09 06:15:10;;;;;;;0.20;0.20;;;;;;;21.99;52.63;102358.31;5123941;27;20473;-37
2022/07/09 06:17:36;;;;;;;0.10;0.10;;;;;;;21.97;52.69;102354.94;5119337;27;20466;-38
2022/07/09 06:20:01;;;;;;;0.10;0.10;;;;;;;21.99;52.61;102360.25;5140377;27;20039;-38
2022/07/09 06:22:27;;;;;;;0.10;0.10;;;;;;;21.98;52.73;102353.03;5145702;27;20053;-38
2022/07/09 06:24:53;;;;;;;0.10;0.10;;;;;;;21.99;52.63;102346.38;5142545;27;20042;-39
2022/07/09 06:27:18;;;;;;;0.10;0.10;;;;;;;21.99;52.57;102352.75;5140781;27;20043;-37
2022/07/09 06:29:44;;;;;;;0.10;0.10;;;;;;;21.98;52.63;102342.78;5139574;27;20047;-37
2022/07/09 06:32:09;;;;;;;0.10;0.10;;;;;;;21.99;52.73;102349.16;5142826;27;20050;-38
2022/07/09 06:34:35;;;;;;;0.10;0.10;;;;;;;21.98;52.70;102347.50;5138377;27;20544;-37
2022/07/09 06:37:01;;;;;;;0.10;0.10;;;;;;;21.98;52.60;102339.16;5141080;27;20457;-36
2022/07/09 06:39:59;;;;;;;0.10;0.10;;;;;;;21.99;52.65;102344.44;5141992;27;20504;-37
2022/07/09 06:42:13;;;;;;;0.10;0.10;;;;;;;22.00;52.59;102351.66;5124329;27;20047;-38
2022/07/09 06:44:39;;;;;;;0.10;0.10;;;;;;;21.99;52.70;102338.88;5140083;27;20067;-36
2022/07/09 06:47:04;;;;;;;0.10;0.10;;;;;;;21.98;52.63;102334.44;5140391;27;20041;-37
2022/07/09 06:49:30;;;;;;;0.10;0.10;;;;;;;21.98;52.53;102340.00;5138400;27;20043;-37
2022/07/09 06:51:56;;;;;;;0.10;0.10;;;;;;;22.00;52.51;102337.78;5124492;27;20513;-37
2022/07/09 06:54:22;;;;;;;0.10;0.10;;;;;;;22.01;52.54;102352.47;5128261;27;20297;-37
2022/07/09 06:56:48;;;;;;;0.10;0.10;;;;;;;21.99;52.67;102341.66;5126131;27;20474;-39
2022/07/09 06:59:14;;;;;;;0.10;0.10;;;;;;;22.01;52.53;102349.69;5127144;27;20036;-38
2022/07/09 07:01:40;;;;;;;0.10;0.10;;;;;;;21.98;52.56;102345.53;5143954;27;20358;-38
2022/07/09 07:04:06;;;;;;;0.10;0.10;;;;;;;21.99;52.65;102352.75;5122769;27;20057;-37
2022/07/09 07:06:32;;;;;;;0.10;0.10;;;;;;;22.01;52.59;102355.25;5139062;27;20061;-39
2022/07/09 07:08:58;;;;;;;0.10;0.10;;;;;;;22.00;52.56;102356.38;5144489;27;20090;-39
2022/07/09 07:11:24;;;;;;;0.10;0.10;;;;;;;22.01;52.46;102346.94;5143499;27;20076;-38
2022/07/09 07:13:50;;;;;;;0.10;0.10;;;;;;;21.98;52.49;102351.09;5119927;27;20085;-38
2022/07/09 07:16:16;;;;;;;0.10;0.10;;;;;;;21.99;52.72;102346.38;5141373;27;20043;-38
2022/07/09 07:18:42;;;;;;;0.10;0.10;;;;;;;21.99;52.68;102344.44;5142633;27;20062;-38
2022/07/09 07:21:07;;;;;;;0.10;0.10;;;;;;;21.99;52.67;102346.38;5140683;27;20046;-39
2022/07/09 07:23:33;;;;;;;0.10;0.10;;;;;;;21.99;52.63;102357.47;5145180;27;20054;-39
2022/07/09 07:25:59;;;;;;;0.10;0.10;;;;;;;21.99;52.51;102349.97;5142604;27;20043;-38
2022/07/09 07:28:25;;;;;;;0.10;0.10;;;;;;;22.00;52.55;102359.97;5122592;27;20472;-39
2022/07/09 07:30:50;;;;;;;0.10;0.10;;;;;;;22.00;52.37;102359.13;5143080;27;20050;-39
2022/07/09 07:33:16;;;;;;;0.10;0.10;;;;;;;22.00;52.56;102357.19;5143158;27;20391;-37
2022/07/09 07:35:43;;;;;;;0.10;0.10;;;;;;;21.99;52.65;102366.63;5147600;27;20047;-39
2022/07/09 07:38:09;;;;;;;0.10;0.10;;;;;;;22.00;52.60;102359.97;5145470;27;20070;-37
2022/07/09 07:40:34;;;;;;;0.10;0.10;;;;;;;22.00;52.63;102359.13;5142907;27;20045;-39
2022/07/09 07:43:00;;;;;;;0.10;0.10;;;;;;;22.00;52.62;102365.50;5142831;27;20050;-38
2022/07/09 07:45:26;;;;;;;0.10;0.10;;;;;;;21.98;52.65;102348.31;5148048;27;20038;-39
2022/07/09 07:47:54;;;;;;;0.10;0.10;;;;;;;22.00;52.56;102356.38;5144050;27;20103;-38
2022/07/09 07:50:20;;;;;;;0.10;0.10;;;;;;;22.00;52.67;102356.38;5143152;27;20085;-39
2022/07/09 07:52:46;;;;;;;0.10;0.10;;;;;;;22.00;52.57;102361.91;5146969;27;20078;-39
2022/07/09 07:55:13;;;;;;;0.10;0.10;;;;;;;22.01;52.51;102358.03;5139312;27;20051;-37
2022/07/09 07:57:38;;;;;;;0.10;0.10;;;;;;;21.98;52.58;102353.88;5146598;27;20362;-38
2022/07/09 08:00:05;;;;;;;0.10;0.10;;;;;;;21.99;52.69;102351.94;5144251;27;20047;-39
2022/07/09 08:02:30;;;;;;;0.10;0.10;;;;;;;21.99;52.54;102349.16;5143120;27;20089;-39
2022/07/09 08:04:57;;;;;;;0.10;0.10;;;;;;;21.99;52.68;102349.97;5146129;27;20047;-37
2022/07/09 08:07:23;;;;;;;0.10;0.10;;;;;;;21.99;52.54;102343.59;5123536;27;20047;-38
2022/07/09 08:09:48;;;;;;;0.10;0.10;;;;;;;21.98;52.69;102342.78;5126076;27;20070;-38
2022/07/09 08:12:14;;;;;;;0.10;0.10;;;;;;;21.99;52.55;102338.06;5125609;27;20039;-37
2022/07/09 08:14:40;;;;;;;0.10;0.10;;;;;;;21.99;52.54;102336.13;5144361;27;20043;-39
2022/07/09 08:17:05;;;;;;;0.13;0.13;;;;;;;21.99;52.56;102326.97;5145473;27;20043;-38
2022/07/09 08:19:31;;;;;;;0.10;0.10;;;;;;;22.00;52.62;102331.41;5143304;27;20051;-38
2022/07/09 08:21:58;;;;;;;0.10;0.10;;;;;;;22.00;52.52;102331.41;5141067;27;20061;-39
2022/07/09 08:24:24;;;;;;;0.10;0.10;;;;;;;22.00;52.55;102328.63;5141728;27;20278;-38
2022/07/09 08:26:49;;;;;;;0.15;0.15;;;;;;;21.99;52.65;102338.06;5141866;27;20057;-39
2022/07/09 08:29:15;;;;;;;0.10;0.10;;;;;;;21.98;52.73;102339.16;5142362;27;20045;-38
2022/07/09 08:31:41;;;;;;;0.10;0.10;;;;;;;21.98;52.64;102334.44;5142512;27;20540;-37
2022/07/09 08:34:07;;;;;;;0.10;0.10;;;;;;;21.98;52.62;102339.16;5140214;27;20758;-38
2022/07/09 08:36:32;;;;;;;0.10;0.10;;;;;;;21.98;52.69;102337.22;5141509;27;20047;-38
2022/07/09 08:38:58;;;;;;;0.10;0.10;;;;;;;21.99;52.71;102338.06;5139294;27;20088;-39
2022/07/09 08:41:23;;;;;;;0.10;0.10;;;;;;;22.00;52.77;102335.00;5140652;27;20380;-38
2022/07/09 08:43:52;;;;;;;0.10;0.10;;;;;;;22.00;52.59;102318.34;5141020;27;20070;-38
2022/07/09 08:46:19;;;;;;;0.10;0.10;;;;;;;22.00;52.60;102318.34;5135164;27;20084;-39
2022/07/09 08:48:45;;;;;;;0.10;0.10;;;;;;;21.99;52.61;102316.69;5146463;27;20384;-37
2022/07/09 08:51:11;;;;;;;0.10;0.10;;;;;;;21.99;52.54;102313.91;5124597;27;20047;-39
2022/07/09 08:53:40;;;;;;;0.10;0.10;;;;;;;22.01;52.59;102302.53;5142019;27;20492;-39
2022/07/09 08:56:06;;;;;;;0.10;0.10;;;;;;;22.02;52.53;102298.66;5124757;27;20077;-39
2022/07/09 08:58:32;;;;;;;0.10;0.10;;;;;;;22.01;52.53;102294.22;5142138;27;20070;-38
2022/07/09 09:00:58;;;;;;;0.10;0.10;;;;;;;22.01;52.75;102288.69;5145338;27;20053;-37
2022/07/09 09:03:24;;;;;;;0.10;0.10;;;;;;;21.99;52.54;102288.13;5144425;27;20051;-37
2022/07/09 09:06:07;;;;;;;0.10;0.10;;;;;;;22.00;52.62;102282.28;5142030;27;20464;-38
2022/07/09 09:08:35;;;;;;;0.10;0.10;;;;;;;22.00;52.55;102275.91;5126488;27;20478;-39
2022/07/09 09:11:03;;;;;;;0.10;0.10;;;;;;;22.00;52.59;102287.00;5126882;27;20039;-37
2022/07/09 09:13:29;;;;;;;0.10;0.10;;;;;;;22.00;52.45;102279.53;5125931;27;20082;-37
2022/07/09 09:16:11;;;;;;;0.10;0.10;;;;;;;22.01;52.47;102274.81;5140992;27;20043;-37
2022/07/09 09:18:40;;;;;;;0.10;0.10;;;;;;;22.00;52.69;102273.97;5130160;27;20081;-37
2022/07/09 09:21:07;;;;;;;0.17;0.17;;;;;;;22.00;52.56;102273.16;5140383;27;20045;-38
2022/07/09 09:23:55;;;;;;;0.10;0.10;;;;;;;22.01;52.54;102269.25;5143584;27;20055;-37
2022/07/09 09:26:23;;;;;;;0.10;0.10;;;;;;;22.00;52.55;102265.66;5117331;27;20040;-37
2022/07/09 09:28:55;;;;;;;0.10;0.10;;;;;;;22.00;52.49;102271.19;5142374;27;20091;-36
2022/07/09 09:31:28;;;;;;;0.10;0.10;;;;;;;22.00;52.48;102270.38;5121745;27;20182;-38
2022/07/09 09:33:55;;;;;;;0.10;0.10;;;;;;;22.00;52.54;102265.66;5127474;27;20047;-38
2022/07/09 09:36:31;;;;;;;0.10;0.10;;;;;;;22.01;52.45;102266.47;5125320;27;20483;-39
2022/07/09 09:39:25;;;;;;;0.10;0.10;;;;;;;22.00;52.67;102267.59;5115001;27;20038;-39
2022/07/09 09:41:54;;;;;;;0.10;0.10;;;;;;;22.00;52.63;102260.09;5139471;27;20066;-38
2022/07/09 09:44:24;;;;;;;0.10;0.10;;;;;;;22.00;52.64;102260.09;5123101;27;20540;-38
2022/07/09 09:46:50;;;;;;;0.10;0.10;;;;;;;22.02;52.66;102273.69;5142117;27;20046;-38
2022/07/09 09:49:16;;;;;;;0.10;0.10;;;;;;;22.01;52.66;102269.25;5146958;27;20043;-37
2022/07/09 09:52:02;;;;;;;0.10;0.10;;;;;;;22.01;52.45;102267.31;5121017;27;20043;-37
2022/07/09 09:54:28;;;;;;;0.10;0.10;;;;;;;22.01;52.61;102253.44;5126886;27;20066;-38
2022/07/09 09:56:55;;;;;;;0.10;0.10;;;;;;;22.01;52.50;102255.38;5142745;27;20130;-39
2022/07/09 09:59:20;;;;;;;0.10;0.10;;;;;;;22.01;52.51;102244.28;5144396;27;20101;-38
2022/07/09 10:01:47;;;;;;;0.10;0.10;;;;;;;22.01;52.42;102250.69;5138452;27;20043;-39
2022/07/09 10:04:15;;;;;;;0.10;0.10;;;;;;;21.99;52.53;102250.13;5124273;27;20490;-38
2022/07/09 10:06:41;;;;;;;0.10;0.10;;;;;;;22.00;52.51;102249.00;5120684;27;20416;-39
2022/07/09 10:09:07;;;;;;;0.10;0.10;;;;;;;22.01;52.59;102241.53;5141933;27;20070;-38
2022/07/09 10:11:43;;;;;;;0.10;0.10;;;;;;;21.99;52.63;102240.97;5113982;27;20473;-38
2022/07/09 10:14:17;;;;;;;0.10;0.10;;;;;;;22.00;52.56;102239.84;5123255;27;20135;-38
2022/07/09 10:16:43;;;;;;;0.10;0.10;;;;;;;22.01;52.47;102235.97;5117516;27;20143;-38
2022/07/09 10:19:09;;;;;;;0.10;0.10;;;;;;;21.98;52.54;102237.38;5142494;27;20043;-38
2022/07/09 10:21:38;;;;;;;0.10;0.10;;;;;;;22.01;52.46;102238.75;5142496;27;20090;-38
2022/07/09 10:24:05;;;;;;;0.10;0.10;;;;;;;22.01;52.63;102230.44;5122633;27;20111;-38
2022/07/09 10:26:46;;;;;;;0.10;0.10;;;;;;;22.00;52.45;102228.75;5137532;27;20096;-39
2022/07/09 10:29:20;;;;;;;0.10;0.10;;;;;;;22.00;52.59;102224.03;5140557;27;20133;-38
2022/07/09 10:31:47;;;;;;;0.10;0.10;;;;;;;22.00;52.58;102226.81;5121541;27;20132;-38
2022/07/09 10:34:37;;;;;;;0.10;0.10;;;;;;;22.01;52.57;102227.66;5124608;27;20473;-38
2022/07/09 10:37:04;;;;;;;0.10;0.10;;;;;;;22.02;52.60;102223.75;5139334;27;20054;-39
2022/07/09 10:39:31;;;;;;;0.10;0.10;;;;;;;22.01;52.52;102224.88;5141614;27;20042;-39
2022/07/09 10:42:03;;;;;;;0.10;0.10;;;;;;;22.01;52.62;102224.88;5141001;27;20501;-38
2022/07/09 10:44:34;;;;;;;0.10;0.10;;;;;;;22.01;52.60;102225.72;5127449;27;20550;-38
2022/07/09 10:47:00;;;;;;;0.10;0.10;;;;;;;22.01;52.52;102213.78;5137684;27;20489;-38
2022/07/09 10:49:27;;;;;;;0.10;0.10;;;;;;;22.00;52.57;102212.13;5141155;27;20039;-39
2022/07/09 10:51:58;;;;;;;0.10;0.10;;;;;;;22.00;52.54;102209.34;5143576;27;20081;-38
2022/07/09 10:54:32;;;;;;;0.10;0.10;;;;;;;21.99;52.48;102202.13;5114578;27;20042;-38
2022/07/09 10:56:58;;;;;;;0.10;0.10;;;;;;;21.99;52.59;102205.75;5119557;27;20082;-39
2022/07/09 10:59:24;;;;;;;0.10;0.10;;;;;;;22.01;52.52;102205.47;5125068;27;20046;-39
2022/07/09 11:01:51;;;;;;;0.10;0.10;;;;;;;22.01;52.62;102202.69;5145282;27;20443;-38
2022/07/09 11:04:33;;;;;;;0.10;0.10;;;;;;;22.01;52.47;102189.66;5140354;27;20469;-38
2022/07/09 11:06:59;;;;;;;0.10;0.10;;;;;;;22.00;52.53;102201.84;5140364;27;20042;-38
2022/07/09 11:09:27;;;;;;;0.10;0.10;;;;;;;22.01;52.67;102188.81;5142347;27;20393;-38
2022/07/09 11:11:53;;;;;;;;;;;;;;;22.00;52.44;102185.22;5142797;27;20067;-39
2022/07/09 11:14:19;;;;;;;0.10;0.10;;;;;;;21.99;52.65;102186.31;5140224;27;19934;-38
2022/07/09 11:17:00;;;;;;;0.10;0.10;;;;;;;21.99;52.50;102191.88;5137449;27;20039;-38
2022/07/09 11:19:26;;;;;;;0.10;0.10;;;;;;;22.00;52.72;102193.53;5140873;27;20469;-38
2022/07/09 11:22:01;;;;;;;0.10;0.10;;;;;;;21.99;52.47;102178.00;5143702;27;20035;-38
2022/07/09 11:24:27;;;;;;;0.10;0.10;;;;;;;21.99;52.51;102182.72;5122287;27;20070;-39